Time;durP1;ratioP1;P1;durP2;ratioP2;P2;SDS_P1;SDS_P2;PMS_P1;PMS_P2;Temp;Humidity;BMP_temperature;BMP_pressure;BME280_temperature;BME280_humidity;BME280_pressure;Samples;Min_cycle;Max_cycle;Signal;HPM_P1;HPM_P2
2022/03/25 00:01:45;;;;;;;59.05;34.95;;;;;;;8.45;62.57;102871.69;5029015;28;20136;-86
2022/03/25 00:04:11;;;;;;;65.60;35.47;;;;;;;8.45;61.98;102888.41;5015703;28;20045;-86
2022/03/25 00:06:36;;;;;;;66.35;35.58;;;;;;;8.39;62.79;102880.34;5031469;28;20483;-86
2022/03/25 00:09:02;;;;;;;67.30;34.53;;;;;;;8.35;63.12;102876.75;5031735;28;20037;-86
2022/03/25 00:11:27;;;;;;;62.72;35.03;;;;;;;8.30;63.40;102878.41;5013248;28;20057;-86
2022/03/25 00:13:53;;;;;;;60.75;34.28;;;;;;;8.33;62.24;102880.22;5014344;28;20037;-86
2022/03/25 00:16:19;;;;;;;63.83;34.10;;;;;;;8.25;62.48;102872.13;5031753;28;20457;-85
2022/03/25 00:18:44;;;;;;;62.70;33.47;;;;;;;8.21;62.02;102870.31;5047822;28;20148;-86
2022/03/25 00:21:10;;;;;;;65.57;34.38;;;;;;;8.17;62.90;102879.91;5013918;28;20037;-86
2022/03/25 00:23:35;;;;;;;69.35;36.42;;;;;;;8.17;63.27;102884.31;5030950;28;20048;-85
2022/03/25 00:26:02;;;;;;;63.10;34.22;;;;;;;8.15;63.58;102883.38;5040223;28;20040;-85
2022/03/25 00:28:28;;;;;;;62.25;34.97;;;;;;;8.07;63.75;102883.22;5034083;28;20099;-86
2022/03/25 00:30:54;;;;;;;63.58;33.15;;;;;;;8.05;63.11;102881.41;5030796;28;20091;-85
2022/03/25 00:33:20;;;;;;;60.72;32.55;;;;;;;8.00;63.12;102873.38;5048309;28;20071;-86
2022/03/25 00:35:45;;;;;;;62.28;34.03;;;;;;;7.97;63.18;102876.84;5021804;28;20105;-85
2022/03/25 00:38:11;;;;;;;63.45;32.13;;;;;;;7.89;62.30;102867.00;5033417;28;20476;-85
2022/03/25 00:40:36;;;;;;;65.55;33.25;;;;;;;7.91;63.32;102871.47;5020041;28;20036;-85
2022/03/25 00:43:02;;;;;;;66.43;33.22;;;;;;;7.88;62.10;102873.13;5023039;28;20025;-85
2022/03/25 00:45:29;;;;;;;61.80;32.53;;;;;;;7.90;62.69;102880.22;5016649;28;20497;-85
2022/03/25 00:47:56;;;;;;;68.18;32.05;;;;;;;7.76;63.50;102868.47;5028965;28;20195;-84
2022/03/25 00:50:23;;;;;;;60.60;32.72;;;;;;;7.78;62.92;102882.56;5011307;28;20021;-84
2022/03/25 00:52:50;;;;;;;58.45;31.35;;;;;;;7.75;62.71;102886.03;5029846;28;20484;-85
2022/03/25 00:55:16;;;;;;;59.97;31.63;;;;;;;7.64;63.61;102870.81;5051806;28;20076;-85
2022/03/25 00:57:42;;;;;;;69.55;33.28;;;;;;;7.64;63.11;102878.72;5038151;28;20623;-85
2022/03/25 01:00:09;;;;;;;61.65;32.28;;;;;;;7.61;63.65;102873.38;5030303;28;20077;-84
2022/03/25 01:02:35;;;;;;;70.95;32.47;;;;;;;7.60;63.29;102884.81;5029301;28;20508;-84
2022/03/25 01:05:02;;;;;;;64.80;32.33;;;;;;;7.51;63.15;102872.28;5035657;28;20528;-85
2022/03/25 01:07:27;;;;;;;63.95;33.15;;;;;;;7.42;63.86;102865.06;5030309;28;20052;-84
2022/03/25 01:09:53;;;;;;;58.13;29.67;;;;;;;7.48;64.06;102878.38;5039096;28;20053;-84
2022/03/25 01:12:21;;;;;;;58.10;31.13;;;;;;;7.45;63.57;102880.06;5030025;28;20029;-84
2022/03/25 01:14:48;;;;;;;62.53;32.00;;;;;;;7.37;63.68;102866.72;5032068;28;20041;-85
2022/03/25 01:17:14;;;;;;;60.53;32.50;;;;;;;7.32;64.22;102876.25;5023087;28;20440;-85
2022/03/25 01:19:41;;;;;;;61.53;32.97;;;;;;;7.27;63.81;102869.94;5025435;28;20044;-85
2022/03/25 01:22:06;;;;;;;54.03;29.00;;;;;;;7.24;63.39;102876.03;5036817;28;20025;-85
2022/03/25 01:24:32;;;;;;;52.17;31.58;;;;;;;7.17;63.73;102865.31;5039919;28;20033;-85
2022/03/25 01:26:59;;;;;;;56.75;29.77;;;;;;;7.15;64.17;102878.47;5050580;28;20128;-85
2022/03/25 01:29:25;;;;;;;64.30;30.65;;;;;;;7.06;64.24;102879.13;5049483;28;20128;-85
2022/03/25 01:31:50;;;;;;;56.75;30.38;;;;;;;7.10;63.74;102885.38;5032446;28;20509;-85
2022/03/25 01:34:16;;;;;;;52.60;29.17;;;;;;;7.06;64.45;102883.50;5025481;28;20529;-84
2022/03/25 01:36:42;;;;;;;52.30;30.00;;;;;;;6.92;64.26;102871.72;5031305;28;20043;-84
2022/03/25 01:39:08;;;;;;;60.78;30.25;;;;;;;6.96;63.74;102876.22;5050195;28;20021;-84
2022/03/25 01:41:33;;;;;;;55.85;29.55;;;;;;;6.96;62.92;102877.09;5025397;28;20036;-84
2022/03/25 01:44:01;;;;;;;56.22;29.88;;;;;;;6.93;63.93;102878.78;5032168;28;20451;-84
2022/03/25 01:46:27;;;;;;;49.70;28.45;;;;;;;6.83;65.22;102862.72;5027168;28;20434;-84
2022/03/25 01:48:53;;;;;;;50.97;29.30;;;;;;;6.79;64.75;102866.13;5043245;28;20441;-84
2022/03/25 01:51:25;;;;;;;53.75;27.58;;;;;;;6.74;63.45;102854.59;5026495;28;20033;-84
2022/03/25 01:53:50;;;;;;;53.33;28.30;;;;;;;6.71;63.93;102864.16;5032782;28;20029;-84
2022/03/25 01:56:24;;;;;;;51.15;28.48;;;;;;;6.67;63.79;102861.41;5036571;28;20083;-84
2022/03/25 01:58:50;;;;;;;54.47;27.38;;;;;;;6.64;63.63;102868.34;5039613;28;20029;-84
2022/03/25 02:01:16;;;;;;;53.55;28.13;;;;;;;6.62;63.74;102876.19;5032651;28;20102;-85
2022/03/25 02:03:44;;;;;;;52.15;27.20;;;;;;;6.65;63.96;102880.66;5042517;28;20028;-84
2022/03/25 02:06:10;;;;;;;51.88;28.48;;;;;;;6.58;63.90;102868.22;5032464;28;20060;-84
2022/03/25 02:08:35;;;;;;;55.08;26.50;;;;;;;6.55;64.06;102863.75;5044871;28;20068;-84
2022/03/25 02:11:01;;;;;;;56.72;28.15;;;;;;;6.53;63.83;102868.06;5045155;28;20444;-84
2022/03/25 02:13:27;;;;;;;49.75;26.83;;;;;;;6.46;63.36;102867.00;5043329;28;20079;-84
2022/03/25 02:15:58;;;;;;;45.38;25.48;;;;;;;6.46;63.33;102874.03;5068553;28;20302;-84
2022/03/25 02:18:25;;;;;;;50.38;27.90;;;;;;;6.39;63.14;102872.06;5026795;28;20141;-84
2022/03/25 02:20:50;;;;;;;47.45;26.90;;;;;;;6.32;63.27;102864.84;5054064;28;20021;-84
2022/03/25 02:23:19;;;;;;;53.85;27.10;;;;;;;6.33;63.11;102871.88;5053984;28;20029;-84
2022/03/25 02:25:51;;;;;;;48.45;28.15;;;;;;;6.23;64.59;102874.28;5045374;28;20090;-84
2022/03/25 02:28:16;;;;;;;48.55;25.42;;;;;;;6.20;63.89;102870.63;5053240;28;20546;-84
2022/03/25 02:30:45;;;;;;;49.60;26.45;;;;;;;6.15;63.29;102873.13;5053838;28;20039;-84
2022/03/25 02:33:14;;;;;;;48.38;26.63;;;;;;;6.09;63.61;102865.09;5042272;28;20037;-84
2022/03/25 02:35:43;;;;;;;45.30;26.40;;;;;;;6.02;63.43;102868.38;5053656;28;20421;-83
2022/03/25 02:38:15;;;;;;;46.60;25.75;;;;;;;5.96;63.30;102869.09;5023041;28;20472;-84
2022/03/25 02:40:41;;;;;;;48.75;26.35;;;;;;;5.87;63.26;102860.88;5053246;28;20483;-85
2022/03/25 02:43:08;;;;;;;46.78;27.30;;;;;;;5.75;63.29;102855.25;5035780;28;20033;-84
2022/03/25 02:45:42;;;;;;;46.75;26.20;;;;;;;5.66;63.22;102850.59;5046505;28;20146;-83
2022/03/25 02:48:09;;;;;;;46.72;25.92;;;;;;;5.73;62.54;102867.47;5053097;28;20464;-84
2022/03/25 02:50:35;;;;;;;46.10;25.50;;;;;;;5.62;62.66;102861.00;5037706;28;20036;-85
2022/03/25 02:53:02;;;;;;;47.22;26.95;;;;;;;5.60;64.32;102874.09;5022887;28;20025;-85
2022/03/25 02:55:28;;;;;;;46.65;26.00;;;;;;;5.50;63.77;102869.38;5053239;28;20036;-85
2022/03/25 02:57:54;;;;;;;47.53;25.45;;;;;;;5.45;64.19;102866.59;5037342;28;20029;-84
2022/03/25 03:00:21;;;;;;;50.63;26.58;;;;;;;5.43;64.06;102878.81;5054385;28;20081;-84
2022/03/25 03:02:47;;;;;;;47.58;26.75;;;;;;;5.35;64.36;102873.31;5050468;28;20461;-84
2022/03/25 03:05:14;;;;;;;52.50;27.48;;;;;;;5.33;64.76;102876.72;5034720;28;20033;-84
2022/03/25 03:07:40;;;;;;;46.30;25.90;;;;;;;5.26;64.72;102882.63;5033923;28;20136;-84
2022/03/25 03:10:06;;;;;;;51.70;25.30;;;;;;;5.28;64.83;102883.56;5033778;28;20148;-84
2022/03/25 03:12:33;;;;;;;51.15;25.67;;;;;;;5.27;63.81;102880.06;5034954;28;20096;-84
2022/03/25 03:15:04;;;;;;;44.35;25.65;;;;;;;5.26;64.48;102878.25;5062642;28;20087;-84
2022/03/25 03:17:29;;;;;;;47.08;24.42;;;;;;;5.22;62.13;102885.97;5016720;28;20041;-84
2022/03/25 03:19:55;;;;;;;51.97;26.42;;;;;;;5.16;63.76;102884.94;5033481;28;20053;-84
2022/03/25 03:22:21;;;;;;;47.97;24.58;;;;;;;5.16;61.83;102884.03;5050040;28;20044;-84
2022/03/25 03:24:46;;;;;;;47.28;26.40;;;;;;;5.06;63.25;102869.72;5033466;28;20025;-84
2022/03/25 03:27:12;;;;;;;43.95;25.85;;;;;;;5.06;63.27;102877.59;5049864;28;20044;-84
2022/03/25 03:29:38;;;;;;;48.83;24.60;;;;;;;5.02;63.18;102878.34;5050301;28;20034;-84
2022/03/25 03:32:05;;;;;;;50.28;26.48;;;;;;;4.90;64.60;102859.56;5049551;28;20499;-84
2022/03/25 03:34:31;;;;;;;50.95;26.90;;;;;;;4.87;63.98;102876.09;5066245;28;20021;-84
2022/03/25 03:36:56;;;;;;;46.38;25.67;;;;;;;4.85;65.16;102880.41;5049448;28;20120;-84
2022/03/25 03:39:22;;;;;;;46.90;26.67;;;;;;;4.83;65.07;102883.81;5066306;28;20520;-84
2022/03/25 03:41:48;;;;;;;42.22;25.65;;;;;;;4.81;65.20;102889.00;5032920;28;20120;-84
2022/03/25 03:44:13;;;;;;;45.92;25.95;;;;;;;4.77;64.19;102881.84;5051446;28;20041;-84
2022/03/25 03:46:39;;;;;;;44.13;24.20;;;;;;;4.72;64.37;102883.41;5016628;28;20133;-84
2022/03/25 03:49:05;;;;;;;50.90;26.27;;;;;;;4.64;65.42;102879.66;5006514;28;20025;-84
2022/03/25 03:51:31;;;;;;;45.10;25.60;;;;;;;4.53;65.65;102874.03;5086346;28;20033;-84
2022/03/25 03:53:57;;;;;;;50.50;27.25;;;;;;;4.49;65.92;102883.50;5036317;28;20132;-84
2022/03/25 03:56:26;;;;;;;40.63;24.55;;;;;;;4.42;65.79;102873.63;5017812;28;20025;-84
2022/03/25 03:58:52;;;;;;;54.50;27.25;;;;;;;4.38;66.12;102881.34;5032741;28;20065;-84
2022/03/25 04:01:18;;;;;;;49.58;27.25;;;;;;;4.30;65.93;102870.56;5015805;28;20079;-84
2022/03/25 04:03:43;;;;;;;49.47;27.98;;;;;;;4.28;66.04;102874.88;5032379;28;20103;-84
2022/03/25 04:06:09;;;;;;;54.03;28.40;;;;;;;4.29;66.53;102884.53;5065682;28;20065;-83
2022/03/25 04:08:35;;;;;;;47.50;26.90;;;;;;;4.23;67.45;102879.94;5032738;28;20030;-83
2022/03/25 04:11:01;;;;;;;50.17;25.92;;;;;;;4.18;66.12;102877.97;5047940;28;20560;-83
2022/03/25 04:13:27;;;;;;;49.63;26.30;;;;;;;4.20;66.56;102879.81;5016256;28;20486;-83
2022/03/25 04:15:53;;;;;;;45.83;26.20;;;;;;;4.22;65.75;102890.38;5030720;28;20108;-83
2022/03/25 04:18:19;;;;;;;51.95;27.27;;;;;;;4.15;65.85;102880.50;5068513;28;20052;-83
2022/03/25 04:20:44;;;;;;;48.50;26.00;;;;;;;4.13;65.97;102893.56;5085991;28;20033;-83
2022/03/25 04:23:10;;;;;;;53.17;27.80;;;;;;;4.14;67.35;102900.56;5085746;28;20052;-83
2022/03/25 04:25:35;;;;;;;53.33;27.83;;;;;;;4.08;66.48;102893.38;5019360;28;20033;-83
2022/03/25 04:28:01;;;;;;;48.40;26.77;;;;;;;4.11;67.64;102894.34;5053179;28;20405;-83
2022/03/25 04:30:30;;;;;;;48.45;25.73;;;;;;;4.08;67.54;102901.25;5069387;28;20037;-83
2022/03/25 04:32:57;;;;;;;49.28;26.70;;;;;;;4.09;67.30;102903.03;5035055;28;20484;-83
2022/03/25 04:35:24;;;;;;;49.88;27.85;;;;;;;4.04;67.28;102901.06;5052336;28;20460;-83
2022/03/25 04:37:50;;;;;;;53.47;28.70;;;;;;;4.01;65.77;102900.97;5085179;28;20457;-83
2022/03/25 04:40:19;;;;;;;49.60;25.60;;;;;;;3.97;66.54;102894.69;5085409;28;20029;-83
2022/03/25 04:42:48;;;;;;;52.28;26.98;;;;;;;3.94;66.81;102899.81;5051561;28;20253;-84
2022/03/25 04:45:14;;;;;;;45.03;27.50;;;;;;;3.94;66.28;102894.59;5010080;28;20033;-83
2022/03/25 04:47:40;;;;;;;55.67;28.65;;;;;;;3.91;66.87;102891.84;5031520;28;20050;-83
2022/03/25 04:50:06;;;;;;;56.53;30.92;;;;;;;3.91;67.22;102890.94;5047178;28;20041;-83
2022/03/25 04:52:32;;;;;;;53.45;27.42;;;;;;;3.88;67.61;102895.25;5034919;28;20068;-83
2022/03/25 04:54:58;;;;;;;59.08;28.38;;;;;;;3.91;67.92;102904.03;5051763;28;20041;-83
2022/03/25 04:57:24;;;;;;;48.53;28.50;;;;;;;3.90;67.66;102900.53;5051705;28;20032;-83
2022/03/25 04:59:50;;;;;;;52.13;28.52;;;;;;;3.86;67.30;102904.78;5051455;28;20032;-83
2022/03/25 05:02:16;;;;;;;54.92;28.08;;;;;;;3.90;68.54;102899.66;5031393;28;20025;-83
2022/03/25 05:04:41;;;;;;;55.65;28.50;;;;;;;3.85;67.97;102905.59;5032907;28;20065;-83
2022/03/25 05:07:13;;;;;;;60.45;29.85;;;;;;;3.79;68.00;102896.63;5015624;28;20434;-84
2022/03/25 05:09:39;;;;;;;53.35;28.75;;;;;;;3.82;66.79;102901.97;5020992;28;20393;-84
2022/03/25 05:12:05;;;;;;;52.55;28.63;;;;;;;3.77;67.94;102899.16;5055257;28;20036;-84
2022/03/25 05:14:30;;;;;;;51.42;31.05;;;;;;;3.77;67.59;102906.16;5058976;28;20038;-84
2022/03/25 05:16:56;;;;;;;56.88;28.70;;;;;;;3.71;67.84;102900.63;5074853;28;20066;-84
2022/03/25 05:19:22;;;;;;;55.00;29.73;;;;;;;3.66;68.99;102906.63;5057970;28;20372;-84
2022/03/25 05:21:48;;;;;;;53.80;30.35;;;;;;;3.55;68.73;102899.16;5041012;28;20062;-84
2022/03/25 05:24:13;;;;;;;53.75;29.67;;;;;;;3.60;69.16;102913.31;5057805;28;20459;-84
2022/03/25 05:26:39;;;;;;;54.97;30.58;;;;;;;3.50;68.93;102895.47;5092466;28;20032;-84
2022/03/25 05:29:05;;;;;;;55.55;31.13;;;;;;;3.54;69.00;102913.09;5041033;28;20027;-84
2022/03/25 05:31:31;;;;;;;54.67;29.25;;;;;;;3.51;68.26;102912.94;5074273;28;20040;-84
2022/03/25 05:33:56;;;;;;;61.58;30.05;;;;;;;3.44;68.49;102907.47;5074128;28;20040;-84
2022/03/25 05:36:22;;;;;;;53.00;30.25;;;;;;;3.44;69.21;102910.09;5057629;28;20024;-84
2022/03/25 05:38:48;;;;;;;58.85;29.50;;;;;;;3.41;69.04;102909.06;5056938;28;20081;-84
2022/03/25 05:41:14;;;;;;;51.67;29.77;;;;;;;3.41;71.27;102907.38;5057434;28;20032;-84
2022/03/25 05:43:40;;;;;;;53.92;30.40;;;;;;;3.43;71.18;102924.00;5092197;28;20016;-85
2022/03/25 05:46:05;;;;;;;59.35;31.25;;;;;;;3.43;71.38;102923.13;5035221;28;20036;-84
2022/03/25 05:48:32;;;;;;;60.33;31.27;;;;;;;3.39;70.38;102919.50;5054152;28;20033;-84
2022/03/25 05:50:57;;;;;;;58.35;31.20;;;;;;;3.39;69.90;102922.13;5073004;28;20032;-84
2022/03/25 05:53:23;;;;;;;60.13;32.40;;;;;;;3.42;69.87;102923.97;5057007;28;20032;-84
2022/03/25 05:55:48;;;;;;;57.47;31.77;;;;;;;3.44;70.79;102924.94;5065267;28;20044;-84
2022/03/25 05:58:14;;;;;;;60.53;32.03;;;;;;;3.45;70.36;102932.81;5073935;28;20059;-84
2022/03/25 06:00:40;;;;;;;59.17;32.47;;;;;;;3.44;71.32;102923.19;5030208;28;20037;-84
2022/03/25 06:03:06;;;;;;;57.65;32.78;;;;;;;3.50;71.07;102933.03;5061645;28;20044;-84
2022/03/25 06:05:32;;;;;;;61.95;32.95;;;;;;;3.50;70.89;102921.66;5067880;28;20028;-84
2022/03/25 06:07:57;;;;;;;74.10;36.83;;;;;;;3.56;71.22;102919.25;5069014;28;20040;-85
2022/03/25 06:10:23;;;;;;;68.45;34.75;;;;;;;3.55;71.11;102915.75;5048214;28;20094;-84
2022/03/25 06:12:49;;;;;;;63.95;34.88;;;;;;;3.67;70.95;102931.97;5073010;28;20388;-84
2022/03/25 06:15:14;;;;;;;70.53;35.85;;;;;;;3.74;71.53;102938.38;5052369;28;20381;-85
2022/03/25 06:17:45;;;;;;;65.55;35.72;;;;;;;3.74;71.83;102929.63;5063042;28;20036;-85
2022/03/25 06:20:17;;;;;;;73.45;36.75;;;;;;;3.77;71.41;102932.34;5062843;28;20063;-84
2022/03/25 06:22:43;;;;;;;70.78;35.05;;;;;;;3.82;71.40;102934.31;5080399;28;20032;-84
2022/03/25 06:25:11;;;;;;;73.28;37.58;;;;;;;3.92;71.45;102948.66;5065127;28;20035;-84
2022/03/25 06:27:50;;;;;;;71.88;36.55;;;;;;;4.00;70.79;102951.59;5081103;28;20028;-85
2022/03/25 06:30:17;;;;;;;66.00;37.30;;;;;;;4.02;71.57;102948.19;5070715;28;20043;-85
2022/03/25 06:32:43;;;;;;;69.80;37.17;;;;;;;4.12;71.65;102940.69;5075097;28;20081;-84
2022/03/25 06:35:09;;;;;;;72.78;40.17;;;;;;;4.19;71.66;102942.72;5076410;28;20031;-84
2022/03/25 06:37:36;;;;;;;77.43;39.38;;;;;;;4.25;71.08;102949.09;5055966;28;20056;-84
2022/03/25 06:40:06;;;;;;;73.22;40.45;;;;;;;4.30;71.07;102950.16;5075163;28;20028;-84
2022/03/25 06:42:32;;;;;;;67.90;38.95;;;;;;;4.34;71.03;102939.78;5059338;28;20047;-84
2022/03/25 06:44:57;;;;;;;72.78;40.90;;;;;;;4.45;71.39;102956.78;5070169;28;20024;-84
2022/03/25 06:47:22;;;;;;;73.10;39.00;;;;;;;4.53;71.38;102958.88;5070669;28;20075;-84
2022/03/25 06:49:48;;;;;;;72.00;40.10;;;;;;;4.53;71.16;102943.13;5074920;28;20044;-84
2022/03/25 06:52:14;;;;;;;70.85;41.85;;;;;;;4.68;71.16;102955.91;5044011;28;20468;-83
2022/03/25 06:54:40;;;;;;;81.68;42.92;;;;;;;4.77;71.56;102962.34;5060204;28;20032;-83
2022/03/25 06:57:06;;;;;;;79.90;42.42;;;;;;;4.83;71.15;102966.06;5076458;28;20063;-83
2022/03/25 06:59:32;;;;;;;84.90;43.25;;;;;;;4.90;71.04;102959.31;5060290;28;20040;-83
2022/03/25 07:01:57;;;;;;;87.32;44.92;;;;;;;4.99;71.11;102958.75;5038302;28;20035;-83
2022/03/25 07:04:23;;;;;;;79.43;43.28;;;;;;;5.03;70.88;102958.03;5058489;28;20084;-83
2022/03/25 07:06:49;;;;;;;80.47;43.80;;;;;;;5.10;71.04;102963.53;5073130;28;20407;-83
2022/03/25 07:09:15;;;;;;;85.15;47.08;;;;;;;5.22;70.67;102968.31;5059557;28;20111;-83
2022/03/25 07:11:40;;;;;;;83.28;47.03;;;;;;;5.30;70.64;102973.84;5045987;28;20040;-83
2022/03/25 07:14:06;;;;;;;79.38;45.70;;;;;;;5.35;70.40;102972.25;5055782;28;20115;-83
2022/03/25 07:16:32;;;;;;;80.80;45.55;;;;;;;5.39;70.62;102964.53;5075379;28;20016;-83
2022/03/25 07:18:59;;;;;;;83.90;49.17;;;;;;;5.51;70.02;102971.03;5055965;28;20036;-83
2022/03/25 07:21:25;;;;;;;90.00;47.97;;;;;;;5.65;70.23;102976.75;5073060;28;20043;-83
2022/03/25 07:23:51;;;;;;;88.38;48.63;;;;;;;5.73;70.16;102970.88;5056663;28;20044;-83
2022/03/25 07:26:17;;;;;;;79.80;46.60;;;;;;;5.85;69.84;102980.91;5040350;28;20261;-83
2022/03/25 07:28:43;;;;;;;83.38;47.45;;;;;;;5.93;69.53;102978.50;5056638;28;20040;-83
2022/03/25 07:31:08;;;;;;;89.95;49.97;;;;;;;5.98;69.51;102969.97;5023617;28;20450;-83
2022/03/25 07:33:34;;;;;;;86.60;47.85;;;;;;;6.07;69.12;102982.50;5056558;28;20032;-83
2022/03/25 07:36:00;;;;;;;94.28;48.10;;;;;;;6.18;69.11;102986.38;5074517;28;20090;-83
2022/03/25 07:38:27;;;;;;;88.50;48.80;;;;;;;6.30;69.00;102983.19;5056793;28;20021;-83
2022/03/25 07:40:54;;;;;;;87.35;50.10;;;;;;;6.44;68.94;102988.88;5056549;28;20074;-82
2022/03/25 07:43:19;;;;;;;82.72;46.40;;;;;;;6.50;68.39;102988.16;5042821;28;20127;-83
2022/03/25 07:45:45;;;;;;;84.10;48.90;;;;;;;6.58;68.56;102984.91;5052640;28;20399;-83
2022/03/25 07:48:11;;;;;;;87.45;47.10;;;;;;;6.72;68.03;103002.84;5051427;28;20456;-83
2022/03/25 07:50:37;;;;;;;85.80;48.97;;;;;;;6.77;67.97;102994.22;5042371;28;20031;-84
2022/03/25 07:53:03;;;;;;;91.05;49.28;;;;;;;6.85;67.26;102997.97;5072315;28;20076;-83
2022/03/25 07:55:29;;;;;;;92.70;49.15;;;;;;;6.98;67.07;103000.97;5071355;28;20373;-83
2022/03/25 07:57:56;;;;;;;91.10;48.92;;;;;;;7.05;67.35;102997.66;5046371;28;20039;-83
2022/03/25 08:00:22;;;;;;;88.63;50.33;;;;;;;7.18;67.08;103004.13;5041266;28;20052;-83
2022/03/25 08:02:52;;;;;;;81.78;46.67;;;;;;;7.27;66.07;103005.28;5066294;28;20067;-84
2022/03/25 08:05:18;;;;;;;85.20;48.47;;;;;;;7.38;65.64;103000.28;5072296;28;20455;-83
2022/03/25 08:07:52;;;;;;;79.88;46.13;;;;;;;7.56;65.75;103012.13;5048429;28;20064;-84
2022/03/25 08:10:20;;;;;;;77.95;45.92;;;;;;;7.64;64.98;103003.59;5070524;28;20105;-84
2022/03/25 08:12:46;;;;;;;87.35;48.53;;;;;;;7.74;64.56;103004.69;5082937;28;20033;-84
2022/03/25 08:15:14;;;;;;;84.65;46.38;;;;;;;7.87;64.89;103017.31;5082823;28;20094;-83
2022/03/25 08:17:51;;;;;;;84.13;47.95;;;;;;;7.94;64.07;103008.69;5075539;28;20032;-84
2022/03/25 08:20:25;;;;;;;84.95;47.00;;;;;;;8.07;64.07;103020.44;5061736;28;20039;-84
2022/03/25 08:22:52;;;;;;;86.22;48.38;;;;;;;8.20;64.79;103018.97;5071187;28;20032;-84
2022/03/25 08:28:02;;;;;;;93.45;48.35;;;;;;;8.50;63.88;103015.25;5049232;28;20056;-84
2022/03/25 08:30:28;;;;;;;80.53;45.92;;;;;;;8.64;63.66;103019.09;5072135;28;20040;-85
2022/03/25 08:32:54;;;;;;;86.13;48.90;;;;;;;8.74;63.15;103006.97;5075941;28;20348;-84
2022/03/25 08:35:20;;;;;;;75.82;46.72;;;;;;;8.91;62.17;103017.88;5075952;28;20039;-85
2022/03/25 08:37:45;;;;;;;72.75;44.72;;;;;;;9.02;61.68;103016.31;5042456;28;20040;-85
2022/03/25 08:40:11;;;;;;;77.38;46.25;;;;;;;9.23;61.21;103029.94;5059076;28;20040;-84
2022/03/25 08:42:37;;;;;;;82.03;45.40;;;;;;;9.35;61.44;103023.13;5056096;28;20036;-85
2022/03/25 08:45:03;;;;;;;79.85;41.92;;;;;;;9.45;59.69;103017.13;5041197;28;20336;-85
2022/03/25 08:47:29;;;;;;;70.72;39.63;;;;;;;9.66;58.95;103027.19;5074633;28;20028;-87
2022/03/25 08:49:54;;;;;;;65.20;38.22;;;;;;;9.81;58.28;103027.41;5080415;28;20349;-86
2022/03/25 08:52:21;;;;;;;72.57;37.78;;;;;;;9.92;56.68;103016.16;5074457;28;20113;-86
2022/03/25 08:54:47;;;;;;;71.40;39.08;;;;;;;10.07;56.56;103027.84;5075250;28;20387;-84
2022/03/25 08:57:13;;;;;;;67.28;36.83;;;;;;;10.16;54.28;103027.06;5057492;28;20028;-84
2022/03/25 08:59:39;;;;;;;63.53;36.17;;;;;;;10.26;54.00;103028.09;5091587;28;20119;-86
2022/03/25 09:02:04;;;;;;;67.63;39.20;;;;;;;10.34;54.29;103029.16;5059098;28;20116;-86
2022/03/25 09:04:30;;;;;;;71.60;38.90;;;;;;;10.48;53.73;103030.25;5037905;28;20046;-86
2022/03/25 09:06:56;;;;;;;66.95;37.00;;;;;;;10.63;53.11;103032.22;5037383;28;20396;-85
2022/03/25 09:09:21;;;;;;;69.38;37.53;;;;;;;10.73;51.85;103033.19;5037400;28;20388;-85
2022/03/25 09:11:47;;;;;;;60.50;35.55;;;;;;;10.88;51.94;103038.69;5054385;28;20085;-86
2022/03/25 09:14:14;;;;;;;66.25;36.22;;;;;;;10.96;51.65;103034.38;5071947;28;20040;-85
2022/03/25 09:16:40;;;;;;;66.35;36.08;;;;;;;11.18;51.81;103039.91;5074123;28;20035;-86
2022/03/25 09:19:06;;;;;;;65.68;37.95;;;;;;;11.33;50.70;103044.50;5040628;28;20023;-86
2022/03/25 09:21:31;;;;;;;63.45;37.28;;;;;;;11.43;50.15;103049.00;5040882;28;20038;-87
2022/03/25 09:23:57;;;;;;;56.60;35.47;;;;;;;11.55;49.12;103043.81;5091336;28;20040;-85
2022/03/25 09:26:24;;;;;;;60.78;35.20;;;;;;;11.62;48.56;103045.66;5075553;28;20043;-86
2022/03/25 09:28:50;;;;;;;58.38;35.10;;;;;;;11.76;48.30;103047.53;5042415;28;20039;-86
2022/03/25 09:31:16;;;;;;;60.10;34.95;;;;;;;11.93;47.85;103037.09;5042402;28;20044;-86
2022/03/25 09:33:41;;;;;;;64.35;34.75;;;;;;;12.02;47.12;103032.75;5075320;28;20040;-86
2022/03/25 09:36:07;;;;;;;56.75;32.45;;;;;;;12.22;45.06;103037.31;5058503;28;20123;-85
2022/03/25 09:38:33;;;;;;;63.13;37.45;;;;;;;12.30;46.44;103040.88;5058150;28;20024;-86
2022/03/25 09:41:03;;;;;;;63.10;36.63;;;;;;;12.37;45.99;103029.41;5075307;28;20142;-87
2022/03/25 09:43:29;;;;;;;62.65;38.55;;;;;;;12.61;46.02;103041.97;5086209;28;20075;-86
2022/03/25 09:45:54;;;;;;;61.83;37.15;;;;;;;12.73;46.18;103033.13;5038559;28;20480;-87
2022/03/25 09:48:20;;;;;;;64.70;38.40;;;;;;;12.91;44.80;103019.03;5054721;28;20040;-85
2022/03/25 09:50:45;;;;;;;62.60;35.42;;;;;;;13.10;43.70;103023.53;5054778;28;20040;-86
2022/03/25 09:53:11;;;;;;;59.35;34.53;;;;;;;13.18;43.13;103020.88;5071732;28;20048;-87
2022/03/25 09:55:43;;;;;;;58.78;33.10;;;;;;;13.37;43.23;103036.91;5054948;28;20029;-87
2022/03/25 09:58:18;;;;;;;57.13;33.55;;;;;;;13.37;42.31;103008.50;5071469;28;20047;-87
2022/03/25 10:00:49;;;;;;;56.63;32.42;;;;;;;13.56;42.11;103017.41;5054689;28;20479;-87
2022/03/25 10:03:22;;;;;;;54.53;31.02;;;;;;;13.63;42.74;103016.53;5054847;28;20431;-87
2022/03/25 10:05:59;;;;;;;63.58;33.40;;;;;;;13.75;42.25;103013.84;5054600;28;20039;-88
2022/03/25 10:08:31;;;;;;;53.38;29.27;;;;;;;13.92;40.97;103023.59;5073281;28;20465;-87
2022/03/25 10:11:31;;;;;;;49.25;26.27;;;;;;;14.00;41.15;103012.94;5076451;28;20067;-86
2022/03/25 10:14:14;;;;;;;51.65;26.48;;;;;;;14.18;41.18;103021.78;5037091;28;20097;-88
2022/03/25 10:16:41;;;;;;;50.47;24.88;;;;;;;14.28;39.23;103022.66;5041867;28;20037;-87
2022/03/25 10:19:09;;;;;;;50.83;26.92;;;;;;;14.41;39.53;103024.41;5058821;28;20024;-87
2022/03/25 10:21:56;;;;;;;46.88;26.67;;;;;;;14.58;40.10;103019.03;5058922;28;20438;-88
2022/03/25 10:24:46;;;;;;;49.20;27.27;;;;;;;14.72;40.05;103010.09;5042085;28;20076;-88
2022/03/25 10:27:13;;;;;;;50.33;28.23;;;;;;;14.91;38.26;103003.78;5058255;28;20044;-88
2022/03/25 10:29:38;;;;;;;45.80;27.55;;;;;;;15.08;38.05;103013.44;5058479;28;20495;-87
2022/03/25 10:32:05;;;;;;;45.25;27.13;;;;;;;15.24;38.33;103020.47;5058509;28;20041;-87
2022/03/25 10:34:31;;;;;;;59.05;29.08;;;;;;;15.43;38.74;103013.19;5058076;28;20047;-89
2022/03/25 10:37:01;;;;;;;53.80;29.08;;;;;;;15.58;37.69;103004.19;5041696;28;20032;-88
2022/03/25 10:39:28;;;;;;;50.03;28.88;;;;;;;15.84;38.37;103006.69;5058458;28;20448;-88
2022/03/25 10:41:58;;;;;;;51.15;28.98;;;;;;;15.96;37.10;103003.00;5058271;28;20036;-88
2022/03/25 10:44:32;;;;;;;48.00;28.63;;;;;;;16.10;37.69;103006.44;5074665;28;20032;-89
2022/03/25 10:46:58;;;;;;;51.33;29.58;;;;;;;16.21;36.28;102995.63;5058130;28;20291;-88
2022/03/25 10:49:23;;;;;;;47.53;29.55;;;;;;;16.27;37.36;102991.09;5041326;28;20393;-90
2022/03/25 10:51:55;;;;;;;49.97;27.58;;;;;;;16.38;36.55;103003.44;5041759;28;20086;-87
2022/03/25 10:54:26;;;;;;;45.65;25.30;;;;;;;16.43;35.28;103005.16;5058416;28;20133;-89
2022/03/25 10:56:54;;;;;;;47.10;24.85;;;;;;;16.64;34.84;103008.47;5058281;28;20060;-89
2022/03/25 10:59:23;;;;;;;43.08;24.30;;;;;;;16.75;34.54;103014.56;5057986;28;20040;-87
2022/03/25 11:01:51;;;;;;;36.50;23.15;;;;;;;16.94;34.97;103005.44;5058237;28;20107;-86
2022/03/25 11:04:17;;;;;;;40.22;22.75;;;;;;;17.06;33.41;103006.13;5058083;28;20135;-87
2022/03/25 11:06:47;;;;;;;43.70;27.42;;;;;;;17.08;34.01;103002.53;5057314;28;20127;-87
2022/03/25 11:09:13;;;;;;;44.25;26.42;;;;;;;17.34;33.48;103006.63;5074268;28;20136;-87
2022/03/25 11:11:45;;;;;;;41.50;26.30;;;;;;;17.56;34.49;103004.50;5074853;28;20102;-87
2022/03/25 11:14:11;;;;;;;43.05;28.65;;;;;;;17.56;33.50;102986.63;5058339;28;20040;-86
2022/03/25 11:16:43;;;;;;;51.05;28.65;;;;;;;17.72;33.37;102992.59;5077451;28;20115;-87